Millard, Kentucky
Current Conditions -  °F | °C
As of 9:15 AM on Saturday 25 Oct 2014 (Local Time) from KPBX Reporting Station
Moderate Fog Moderate Fog  
Wind Chill: 38°   Ceiling: 100
Heat Index: 41°   Visibility: 0mi
Dew Point: 41°   Wind: 5mph
Humidity: 99%   Direction: 170°S
Pressure: 30.08"   Gusts: NA
Location:  37.3722°N, 82.4513°W
Report Text: KPBX 251315Z AUTO 17004KT M1/4SM FG OVC001 05/05 A3008 RMK AO2 T00500049
Loading
Personal Weather Stations






























Interactive Weather Map
Tropical Storm Tracking
New forecast layout! Learn more

10-Day Weather Forecast

Advertisements
Track Severe Weather on mobile